Time;durP1;ratioP1;P1;durP2;ratioP2;P2;SDS_P1;SDS_P2;PMS_P1;PMS_P2;Temp;Humidity;BMP_temperature;BMP_pressure;BME280_temperature;BME280_humidity;BME280_pressure;Samples;Min_cycle;Max_cycle;Signal;HPM_P1;HPM_P2
2021/07/03 00:01:30;;;;;;;21.77;8.70;;;;;;;15.76;83.03;98587.68;2073542;86;21030;-65
2021/07/03 00:04:32;;;;;;;19.65;8.10;;;;;;;15.75;83.10;98594.42;2075143;86;21031;-61
2021/07/03 00:07:33;;;;;;;20.68;7.50;;;;;;;15.75;82.94;98593.92;2073789;86;21002;-61
2021/07/03 00:10:33;;;;;;;20.43;7.87;;;;;;;15.76;82.99;98593.47;2073767;84;21063;-61
2021/07/03 00:13:34;;;;;;;19.85;7.37;;;;;;;15.79;82.56;98584.44;2036168;87;21015;-65
2021/07/03 00:16:34;;;;;;;18.00;7.35;;;;;;;15.82;82.70;98594.28;2073786;84;21143;-60
2021/07/03 00:19:35;;;;;;;19.98;7.12;;;;;;;15.83;82.58;98592.00;2074007;86;20979;-60
2021/07/03 00:22:35;;;;;;;20.80;7.20;;;;;;;15.82;82.58;98582.38;2073968;86;21007;-61
2021/07/03 00:25:36;;;;;;;18.23;7.17;;;;;;;15.82;82.87;98585.02;2074007;86;21498;-61
2021/07/03 00:28:36;;;;;;;19.15;7.40;;;;;;;15.84;83.38;98585.72;2074003;86;21509;-61
2021/07/03 00:31:36;;;;;;;18.60;6.85;;;;;;;15.82;82.97;98583.70;2073854;86;20983;-61
2021/07/03 00:34:37;;;;;;;19.25;6.90;;;;;;;15.82;82.80;98587.67;2073852;86;21027;-61
2021/07/03 00:37:37;;;;;;;19.55;6.50;;;;;;;15.82;83.06;98585.02;2073870;86;21023;-61
2021/07/03 00:40:38;;;;;;;17.80;6.10;;;;;;;15.82;82.62;98582.38;2074046;86;20991;-62
2021/07/03 00:43:39;;;;;;;19.32;6.78;;;;;;;15.82;82.84;98584.20;2074161;86;21004;-60
2021/07/03 00:46:39;;;;;;;18.95;6.55;;;;;;;15.81;82.84;98585.98;2073805;86;21038;-61
2021/07/03 00:49:40;;;;;;;17.62;6.58;;;;;;;15.79;83.45;98581.33;2033887;88;21071;-61
2021/07/03 00:52:42;;;;;;;19.25;6.28;;;;;;;15.76;83.65;98585.53;2027469;88;21059;-61
2021/07/03 00:55:43;;;;;;;18.75;6.25;;;;;;;15.73;84.46;98591.05;2027335;88;21167;-61
2021/07/03 00:58:43;;;;;;;18.12;6.05;;;;;;;15.73;84.68;98583.98;2027683;87;21011;-61
2021/07/03 01:01:44;;;;;;;19.42;6.47;;;;;;;15.73;84.25;98583.98;2027504;87;20992;-61
2021/07/03 01:04:45;;;;;;;19.62;7.12;;;;;;;15.72;85.22;98580.16;2027877;87;21019;-61
2021/07/03 01:07:45;;;;;;;17.87;6.60;;;;;;;15.69;84.55;98566.70;2027809;87;21028;-61
2021/07/03 01:10:46;;;;;;;20.92;6.50;;;;;;;15.72;84.87;98568.25;2027771;87;21045;-61
2021/07/03 01:13:46;;;;;;;20.57;7.12;;;;;;;15.72;84.77;98565.61;2027593;87;21083;-61
2021/07/03 01:16:47;;;;;;;18.80;7.15;;;;;;;15.70;85.67;98565.75;2059598;86;21068;-64
2021/07/03 01:19:48;;;;;;;21.25;7.37;;;;;;;15.70;85.55;98563.10;2100595;85;21042;-67
2021/07/03 01:22:49;;;;;;;19.62;7.30;;;;;;;15.72;85.61;98569.08;2045330;87;21067;-62
2021/07/03 01:25:49;;;;;;;19.65;6.62;;;;;;;15.73;86.34;98570.77;2100927;84;21117;-68
2021/07/03 01:28:50;;;;;;;21.45;7.55;;;;;;;15.73;85.50;98569.91;2101204;85;21072;-70
2021/07/03 01:31:51;;;;;;;18.55;7.30;;;;;;;15.73;85.97;98565.48;2101214;85;21017;-64
2021/07/03 01:34:51;;;;;;;19.90;7.40;;;;;;;15.75;86.02;98567.98;2101226;85;21044;-73
2021/07/03 01:37:51;;;;;;;21.27;7.78;;;;;;;15.76;86.98;98561.23;2100910;85;21005;-68
2021/07/03 01:40:52;;;;;;;23.02;8.23;;;;;;;15.78;86.61;98557.63;2101184;85;21056;-70
2021/07/03 01:43:52;;;;;;;20.25;7.90;;;;;;;15.79;87.02;98552.70;2100851;85;21045;-66
2021/07/03 01:46:53;;;;;;;21.50;7.97;;;;;;;15.79;86.50;98552.23;2101292;85;21588;-66
2021/07/03 01:49:53;;;;;;;21.75;8.55;;;;;;;15.78;86.02;98550.53;2045260;87;21023;-74
2021/07/03 01:52:54;;;;;;;20.20;8.63;;;;;;;15.82;86.25;98557.26;2101004;85;21025;-70
2021/07/03 01:55:54;;;;;;;21.90;9.38;;;;;;;15.84;86.53;98550.02;2100993;85;21064;-75
2021/07/03 01:58:55;;;;;;;23.70;9.68;;;;;;;15.86;86.66;98552.06;2101137;85;21092;-61
2021/07/03 02:01:55;;;;;;;21.33;9.33;;;;;;;;;;2101183;85;21053;-61
2021/07/03 02:04:55;;;;;;;20.72;9.48;;;;;;;15.89;87.97;98558.89;2045384;87;21003;-61
2021/07/03 02:07:56;;;;;;;24.30;11.53;;;;;;;15.89;87.19;98550.95;2101051;85;21586;-65
2021/07/03 02:10:56;;;;;;;25.50;11.65;;;;;;;15.89;88.27;98554.43;2101126;85;21053;-61
2021/07/03 02:13:57;;;;;;;27.17;13.20;;;;;;;15.91;87.83;98545.86;2101018;85;21009;-61
2021/07/03 02:16:57;;;;;;;24.80;11.53;;;;;;;15.92;87.70;98550.69;2115509;84;21124;-61
2021/07/03 02:19:58;;;;;;;26.87;12.88;;;;;;;15.94;87.39;98551.38;2117128;84;21000;-62
2021/07/03 02:22:58;;;;;;;26.20;13.00;;;;;;;15.95;87.97;98549.09;2116837;84;21004;-61
2021/07/03 02:25:58;;;;;;;27.48;13.72;;;;;;;15.93;88.42;98541.29;2116982;84;21056;-61
2021/07/03 02:28:59;;;;;;;25.50;12.93;;;;;;;15.91;88.34;98543.22;2116974;84;21692;-61
2021/07/03 02:31:59;;;;;;;28.52;12.88;;;;;;;15.91;88.75;98552.97;2116951;84;21016;-61
2021/07/03 02:35:00;;;;;;;25.25;12.37;;;;;;;15.89;88.73;98557.57;2116731;84;21127;-61
2021/07/03 02:38:00;;;;;;;26.73;13.43;;;;;;;15.90;88.74;98556.11;2117240;84;21004;-61
2021/07/03 02:41:01;;;;;;;26.60;13.22;;;;;;;15.88;89.32;98544.81;2117046;84;21012;-60
2021/07/03 02:44:01;;;;;;;29.15;13.95;;;;;;;15.88;88.73;98559.36;2116969;84;21057;-61
2021/07/03 02:47:02;;;;;;;27.85;13.53;;;;;;;15.89;88.95;98569.47;2116800;84;21024;-67
2021/07/03 02:50:02;;;;;;;28.40;14.30;;;;;;;15.87;89.38;98561.64;2116925;84;21547;-68
2021/07/03 02:53:03;;;;;;;28.60;14.38;;;;;;;15.86;89.85;98564.42;2116809;84;21068;-71
2021/07/03 02:56:03;;;;;;;30.97;14.98;;;;;;;15.86;89.38;98567.06;2117055;84;21112;-70
2021/07/03 02:59:04;;;;;;;28.98;13.78;;;;;;;15.85;89.38;98564.92;2117180;84;20996;-70
2021/07/03 03:02:04;;;;;;;27.22;14.68;;;;;;;15.85;89.82;98570.70;2116976;84;21088;-65
2021/07/03 03:05:05;;;;;;;27.25;13.70;;;;;;;15.84;89.91;98564.55;2116971;84;21001;-68
2021/07/03 03:08:05;;;;;;;29.55;14.65;;;;;;;15.84;89.48;98565.88;2116827;84;20973;-67
2021/07/03 03:11:06;;;;;;;29.55;14.03;;;;;;;15.85;89.64;98572.85;2116935;84;21572;-68
2021/07/03 03:14:06;;;;;;;28.45;15.45;;;;;;;15.85;89.96;98569.38;2116930;84;21553;-64
2021/07/03 03:17:06;;;;;;;27.98;14.53;;;;;;;15.85;89.60;98574.67;2078397;84;21047;-61
2021/07/03 03:20:07;;;;;;;29.27;15.15;;;;;;;15.84;89.11;98571.17;2073853;86;21055;-73
2021/07/03 03:23:07;;;;;;;29.85;14.78;;;;;;;15.88;88.86;98571.75;2073857;86;21036;-67
2021/07/03 03:26:08;;;;;;;31.57;16.60;;;;;;;15.87;89.53;98582.80;2073745;86;21035;-63
2021/07/03 03:29:08;;;;;;;30.23;16.00;;;;;;;15.88;88.95;98577.05;2073815;86;21051;-68
2021/07/03 03:32:09;;;;;;;32.30;15.85;;;;;;;15.88;89.13;98581.01;2073483;86;21051;-70
2021/07/03 03:35:09;;;;;;;30.43;16.75;;;;;;;15.87;89.58;98586.77;2073683;86;21054;-70
2021/07/03 03:38:09;;;;;;;30.80;16.07;;;;;;;15.87;88.82;98569.58;2073621;86;21529;-61
2021/07/03 03:41:11;;;;;;;29.67;15.13;;;;;;;15.92;88.96;98567.37;2073452;86;21546;-71
2021/07/03 03:44:12;;;;;;;28.73;14.90;;;;;;;15.91;89.35;98572.80;2073984;86;21019;-68
2021/07/03 03:47:12;;;;;;;30.92;14.98;;;;;;;15.94;88.68;98575.18;2073883;85;21031;-73
2021/07/03 03:50:13;;;;;;;29.42;14.20;;;;;;;15.95;89.08;98578.19;2073658;86;21062;-71
2021/07/03 03:53:13;;;;;;;28.57;14.07;;;;;;;15.95;89.18;98578.19;2073230;86;21585;-69
2021/07/03 03:56:14;;;;;;;27.13;13.55;;;;;;;15.93;89.28;98570.85;2073523;86;21577;-61
2021/07/03 03:59:14;;;;;;;26.07;13.55;;;;;;;15.93;88.93;98564.23;2073498;84;21608;-61
2021/07/03 04:02:15;;;;;;;26.00;13.70;;;;;;;15.94;89.26;98573.36;2073574;86;21078;-61
2021/07/03 04:05:15;;;;;;;27.15;13.45;;;;;;;15.96;88.90;98567.97;2073947;86;21008;-61
2021/07/03 04:08:16;;;;;;;26.68;14.03;;;;;;;15.97;88.91;98570.94;2073719;86;21044;-61
2021/07/03 04:11:16;;;;;;;27.07;13.20;;;;;;;15.98;89.01;98563.36;2073704;86;20991;-61
2021/07/03 04:14:17;;;;;;;27.37;13.90;;;;;;;15.96;89.05;98570.61;2073585;86;21066;-61
2021/07/03 04:17:17;;;;;;;28.75;13.58;;;;;;;15.98;88.92;98567.83;2073210;84;21537;-66
2021/07/03 04:20:18;;;;;;;30.55;14.63;;;;;;;15.99;88.76;98572.98;2073529;84;20987;-65
2021/07/03 04:23:18;;;;;;;29.05;13.08;;;;;;;15.99;89.29;98562.40;2073961;85;20983;-71
2021/07/03 04:26:19;;;;;;;26.33;13.20;;;;;;;16.01;89.03;98562.27;2073570;85;21099;-69
2021/07/03 04:29:19;;;;;;;28.57;12.75;;;;;;;16.06;88.54;98563.53;2073831;85;20999;-67
2021/07/03 04:32:20;;;;;;;24.75;10.80;;;;;;;16.14;88.55;98567.31;2073680;85;21083;-63
2021/07/03 04:35:20;;;;;;;24.70;11.93;;;;;;;16.21;88.28;98573.73;2073545;84;21568;-69
2021/07/03 04:38:20;;;;;;;25.45;11.38;;;;;;;16.26;87.61;98568.39;2073578;86;21541;-68
2021/07/03 04:41:21;;;;;;;23.57;10.28;;;;;;;16.32;87.27;98567.48;2073434;86;21087;-72
2021/07/03 04:44:22;;;;;;;24.32;9.85;;;;;;;16.37;87.00;98566.59;2073562;86;21046;-65
2021/07/03 04:47:22;;;;;;;22.37;9.75;;;;;;;16.42;86.55;98561.24;2073550;86;21007;-67
2021/07/03 04:50:23;;;;;;;25.10;9.23;;;;;;;16.49;86.05;98556.21;2073773;86;21027;-66
2021/07/03 04:53:23;;;;;;;24.52;9.98;;;;;;;16.55;85.60;98553.50;2073608;86;21079;-65
2021/07/03 04:56:23;;;;;;;22.35;8.95;;;;;;;16.59;84.92;98550.47;2073743;86;21008;-69
2021/07/03 04:59:24;;;;;;;21.82;8.83;;;;;;;16.68;84.72;98562.50;2073530;86;21071;-72
2021/07/03 05:02:24;;;;;;;22.25;8.30;;;;;;;16.80;83.63;98554.28;2073565;86;21499;-72
2021/07/03 05:05:25;;;;;;;21.55;8.85;;;;;;;16.90;83.57;98563.58;2073426;86;21601;-63
2021/07/03 05:08:26;;;;;;;21.10;8.75;;;;;;;17.04;83.13;98562.80;2073643;85;21030;-74
2021/07/03 05:11:26;;;;;;;20.12;8.45;;;;;;;17.12;82.85;98561.61;2073759;86;20992;-68
2021/07/03 05:14:27;;;;;;;21.27;8.78;;;;;;;17.23;82.26;98561.95;2073741;86;20996;-66
2021/07/03 05:17:28;;;;;;;22.85;9.98;;;;;;;17.22;81.91;98558.45;2073384;84;21055;-66
2021/07/03 05:20:29;;;;;;;22.62;8.95;;;;;;;17.25;81.70;98559.48;2036043;87;21078;-70
2021/07/03 05:23:29;;;;;;;20.15;8.05;;;;;;;17.29;81.06;98565.34;2073633;86;20995;-67
2021/07/03 05:26:30;;;;;;;19.98;8.20;;;;;;;17.30;80.93;98567.03;2073475;86;21167;-72
2021/07/03 05:29:30;;;;;;;21.85;7.80;;;;;;;17.30;80.08;98570.50;2073840;86;21034;-66
2021/07/03 05:32:31;;;;;;;19.23;7.85;;;;;;;17.31;80.37;98559.40;2073741;86;21034;-66
2021/07/03 05:35:31;;;;;;;22.05;8.48;;;;;;;17.39;81.18;98558.70;2073728;86;21038;-66
2021/07/03 05:38:40;;;;;;;22.70;8.58;;;;;;;17.35;80.16;98580.67;2073762;86;21027;-62
2021/07/03 05:41:34;;;;;;;;;;;;;;;17.30;79.64;98574.98;2077581;85;21072;-74
2021/07/03 05:44:35;;;;;;;22.90;8.28;;;;;;;17.27;80.23;98570.80;2073533;86;20148;-75
2021/07/03 05:47:36;;;;;;;20.17;7.62;;;;;;;17.20;81.11;98564.39;2073420;86;21050;-68
2021/07/03 05:50:36;;;;;;;20.82;7.95;;;;;;;17.18;80.77;98567.66;2073755;85;20999;-64
2021/07/03 05:53:37;;;;;;;20.45;7.50;;;;;;;17.16;80.39;98566.98;2073501;84;20995;-62
2021/07/03 05:56:37;;;;;;;21.95;7.67;;;;;;;17.21;80.64;98559.92;2073647;85;20991;-61
2021/07/03 05:59:40;;;;;;;23.18;7.05;;;;;;;17.29;80.41;98568.00;2073512;86;21471;-63
2021/07/03 06:02:40;;;;;;;;;;;;;;;17.30;79.85;98569.68;2077690;85;21356;-65
2021/07/03 06:05:40;;;;;;;20.20;6.85;;;;;;;17.09;80.13;98534.08;2073541;85;20472;-61
2021/07/03 06:08:41;;;;;;;27.60;8.25;;;;;;;17.36;80.33;98574.91;2073536;85;21039;-62
2021/07/03 06:11:41;;;;;;;20.50;7.20;;;;;;;17.39;80.29;98575.94;2073464;86;21051;-61
2021/07/03 06:14:42;;;;;;;21.12;6.72;;;;;;;17.41;80.38;98587.22;2073507;86;21063;-62
2021/07/03 06:17:42;;;;;;;19.70;5.92;;;;;;;17.41;79.83;98578.80;2073468;84;21023;-62
2021/07/03 06:20:44;;;;;;;19.17;6.85;;;;;;;17.38;79.88;98587.01;2074076;86;20987;-63
2021/07/03 06:23:45;;;;;;;20.02;6.62;;;;;;;17.37;79.81;98595.96;2034133;88;21047;-61
2021/07/03 06:26:45;;;;;;;20.40;6.67;;;;;;;17.40;80.32;98586.39;2027952;86;21004;-62
2021/07/03 06:29:46;;;;;;;19.92;6.80;;;;;;;17.42;79.97;98583.09;2027996;87;20987;-62
2021/07/03 06:32:46;;;;;;;22.70;7.10;;;;;;;17.44;80.61;98576.33;2027904;87;20987;-62
2021/07/03 06:35:46;;;;;;;20.02;6.03;;;;;;;17.47;80.15;98586.16;2027875;87;21038;-64
2021/07/03 06:38:47;;;;;;;20.57;6.00;;;;;;;17.54;79.45;98597.52;2027804;87;21020;-61
2021/07/03 06:41:47;;;;;;;20.23;5.45;;;;;;;17.56;79.04;98585.79;2027869;87;21040;-61
2021/07/03 06:44:49;;;;;;;26.75;6.00;;;;;;;17.60;78.77;98590.34;2027539;87;21035;-61
2021/07/03 06:47:50;;;;;;;18.45;5.83;;;;;;;17.58;78.35;98590.45;2027787;88;21498;-61
2021/07/03 06:50:50;;;;;;;20.00;5.83;;;;;;;17.56;79.06;98586.30;2027450;87;21087;-63
2021/07/03 06:53:54;;;;;;;19.48;5.72;;;;;;;17.60;78.07;98595.64;2027498;88;21032;-61
2021/07/03 06:59:58;;;;;;;17.07;5.53;;;;;;;17.59;77.98;98592.13;2002306;88;20138;-61
2021/07/03 07:02:58;;;;;;;19.98;5.03;;;;;;;17.61;77.54;98606.56;2002187;88;21004;-62
2021/07/03 07:05:59;;;;;;;17.55;4.55;;;;;;;17.64;77.62;98595.20;2027779;87;21463;-63
2021/07/03 07:08:59;;;;;;;17.62;4.75;;;;;;;17.71;77.73;98594.61;2027683;87;21519;-65
2021/07/03 07:12:00;;;;;;;16.97;4.80;;;;;;;17.69;77.08;98589.45;2027674;87;21074;-61
2021/07/03 07:15:01;;;;;;;15.93;4.40;;;;;;;17.66;76.83;98606.48;2027732;87;21050;-65
2021/07/03 07:18:01;;;;;;;17.75;5.05;;;;;;;17.63;76.45;98605.45;2056143;85;21100;-72
2021/07/03 07:21:02;;;;;;;17.10;4.70;;;;;;;17.66;76.74;98599.85;2101087;85;21017;-72
2021/07/03 07:24:02;;;;;;;14.45;4.40;;;;;;;17.70;76.68;98608.84;2100854;85;21520;-75
2021/07/03 07:27:02;;;;;;;16.37;4.55;;;;;;;17.71;75.82;98617.16;2099600;85;21560;-75
2021/07/03 07:30:03;;;;;;;17.60;4.62;;;;;;;17.68;75.35;98622.25;2100835;85;20997;-72
2021/07/03 07:33:03;;;;;;;15.18;4.47;;;;;;;17.70;76.04;98603.54;2100908;85;21005;-72
2021/07/03 07:36:04;;;;;;;22.20;5.05;;;;;;;17.74;76.00;98600.48;2100877;85;21017;-75
2021/07/03 07:39:04;;;;;;;14.70;4.22;;;;;;;17.80;75.78;98606.52;2100841;85;21144;-75
2021/07/03 07:42:05;;;;;;;20.68;5.22;;;;;;;17.83;75.71;98599.59;2101180;85;21025;-70
2021/07/03 07:45:05;;;;;;;16.07;4.53;;;;;;;17.90;75.42;98603.87;2100993;85;21073;-61
2021/07/03 07:48:06;;;;;;;17.87;4.72;;;;;;;17.97;74.65;98604.09;2101052;85;21089;-61
2021/07/03 07:51:06;;;;;;;22.22;6.25;;;;;;;18.06;74.44;98611.67;2100586;83;21109;-61
2021/07/03 07:54:07;;;;;;;21.27;5.40;;;;;;;18.13;74.82;98608.77;2101083;85;21057;-62
2021/07/03 07:57:08;;;;;;;20.08;5.50;;;;;;;18.12;73.75;98605.80;2045374;87;21525;-62
2021/07/03 08:00:08;;;;;;;15.78;4.40;;;;;;;18.13;74.24;98610.95;2100934;85;21005;-61
2021/07/03 08:03:09;;;;;;;21.30;6.87;;;;;;;18.22;73.75;98615.88;2100959;85;21556;-62
2021/07/03 08:06:09;;;;;;;16.05;4.72;;;;;;;18.37;74.11;98604.75;2044950;87;21597;-64
2021/07/03 08:09:10;;;;;;;20.52;4.67;;;;;;;18.49;73.97;98608.38;2100930;85;21053;-64
2021/07/03 08:12:11;;;;;;;17.70;4.70;;;;;;;18.59;73.09;98616.77;2100914;85;21036;-65
2021/07/03 08:15:11;;;;;;;16.12;4.40;;;;;;;18.60;72.13;98640.52;2100912;85;21037;-64
2021/07/03 08:18:12;;;;;;;16.73;4.97;;;;;;;18.59;72.45;98626.91;2113873;84;21072;-61
2021/07/03 08:21:13;;;;;;;15.93;4.80;;;;;;;18.60;72.52;98619.77;2116721;84;21056;-61
2021/07/03 08:24:14;;;;;;;15.50;4.75;;;;;;;18.62;72.50;98615.98;2074986;86;20968;-61
2021/07/03 08:27:15;;;;;;;17.23;4.60;;;;;;;18.64;72.61;98630.44;2074816;86;21571;-62
2021/07/03 08:30:15;;;;;;;15.78;4.47;;;;;;;18.62;72.49;98632.39;2074955;86;20984;-62
2021/07/03 08:33:16;;;;;;;18.25;4.58;;;;;;;18.64;72.30;98623.80;2075009;86;21458;-61
2021/07/03 08:36:16;;;;;;;16.80;5.17;;;;;;;18.70;71.40;98623.19;2074833;86;21005;-61
2021/07/03 08:39:17;;;;;;;18.82;4.87;;;;;;;18.77;71.50;98628.75;2075073;86;21020;-66
2021/07/03 08:42:17;;;;;;;15.40;4.72;;;;;;;18.80;71.17;98619.14;2074924;86;20941;-73
2021/07/03 08:45:18;;;;;;;15.35;4.53;;;;;;;18.88;71.99;98612.62;2075069;86;20984;-68
2021/07/03 08:48:19;;;;;;;16.80;4.78;;;;;;;19.02;71.63;98616.54;2074813;86;20980;-68
2021/07/03 08:51:21;;;;;;;15.88;4.87;;;;;;;19.14;71.32;98617.16;2075147;86;21040;-64
2021/07/03 08:54:22;;;;;;;13.88;4.90;;;;;;;19.25;70.84;98618.73;2072330;86;20996;-66
2021/07/03 08:57:22;;;;;;;16.52;5.33;;;;;;;19.35;70.10;98623.45;2074826;86;21530;-66
2021/07/03 09:00:23;;;;;;;17.17;5.05;;;;;;;19.45;70.73;98626.03;2074631;86;20971;-68
2021/07/03 09:03:23;;;;;;;18.67;5.03;;;;;;;19.50;69.33;98615.77;2074675;86;21039;-73
2021/07/03 09:06:24;;;;;;;16.17;4.83;;;;;;;19.58;68.15;98624.29;2074888;86;20997;-62
2021/07/03 09:09:24;;;;;;;19.10;5.03;;;;;;;19.62;68.05;98621.66;2074837;86;20985;-70
2021/07/03 09:12:25;;;;;;;16.97;4.95;;;;;;;19.75;69.99;98618.07;2074995;86;21432;-66
2021/07/03 09:15:25;;;;;;;17.32;4.75;;;;;;;19.90;69.17;98620.53;2075136;86;20988;-66
2021/07/03 09:18:27;;;;;;;19.30;5.60;;;;;;;19.89;68.19;98622.02;2043422;86;21020;-62
2021/07/03 09:21:28;;;;;;;17.90;4.90;;;;;;;19.88;68.12;98629.18;2035810;87;21027;-63
2021/07/03 09:24:29;;;;;;;18.92;5.42;;;;;;;19.82;68.16;98616.99;2036020;87;21043;-65
2021/07/03 09:27:30;;;;;;;17.75;4.85;;;;;;;19.83;67.89;98619.49;2035863;87;21067;-65
2021/07/03 09:30:30;;;;;;;18.48;5.03;;;;;;;19.83;67.89;98619.49;2035898;87;21613;-62
2021/07/03 09:33:30;;;;;;;17.50;5.00;;;;;;;19.89;69.09;98610.86;2035988;87;21597;-62
2021/07/03 09:36:31;;;;;;;17.12;5.12;;;;;;;20.04;68.97;98610.27;2036038;87;21522;-62
2021/07/03 09:39:31;;;;;;;18.60;5.50;;;;;;;20.10;67.39;98618.97;2035788;87;21004;-62
2021/07/03 09:42:32;;;;;;;16.32;5.50;;;;;;;20.05;67.53;98607.45;2035812;87;21000;-62
2021/07/03 09:45:33;;;;;;;20.92;5.70;;;;;;;20.02;66.90;98608.27;2032982;86;21004;-62
2021/07/03 09:48:34;;;;;;;19.75;5.70;;;;;;;20.08;66.98;98602.30;2036092;87;20995;-62
2021/07/03 09:51:36;;;;;;;19.00;5.33;;;;;;;20.28;66.64;98616.70;2035860;87;20987;-62
2021/07/03 09:54:38;;;;;;;19.98;5.85;;;;;;;20.41;67.17;98615.27;2035739;87;21088;-62
2021/07/03 09:57:39;;;;;;;26.27;5.90;;;;;;;20.43;67.23;98601.78;2035832;87;21055;-62
2021/07/03 10:00:40;;;;;;;26.00;6.12;;;;;;;20.45;66.84;98602.44;2074021;86;21482;-62
2021/07/03 10:03:40;;;;;;;19.55;5.37;;;;;;;20.42;66.27;98599.59;2036045;87;21046;-64
2021/07/03 10:06:41;;;;;;;19.77;5.70;;;;;;;20.54;66.19;98581.98;2073920;86;21056;-62
2021/07/03 10:09:41;;;;;;;20.08;5.42;;;;;;;20.71;66.36;98583.70;2036007;87;21016;-61
2021/07/03 10:12:42;;;;;;;16.70;4.97;;;;;;;20.90;66.12;98584.39;2073790;86;21548;-62
2021/07/03 10:15:42;;;;;;;19.17;5.30;;;;;;;21.01;65.50;98588.06;2073763;85;21526;-62
2021/07/03 10:18:43;;;;;;;21.97;5.75;;;;;;;21.08;65.89;98582.39;2073762;84;21067;-62
2021/07/03 10:21:43;;;;;;;17.17;5.30;;;;;;;21.01;64.28;98589.39;2074046;86;21067;-66
2021/07/03 10:24:44;;;;;;;17.45;5.33;;;;;;;21.00;64.82;98592.23;2073863;86;21050;-62
2021/07/03 10:27:44;;;;;;;17.85;5.05;;;;;;;21.03;65.78;98579.41;2074081;86;21009;-66
2021/07/03 10:30:45;;;;;;;19.82;5.17;;;;;;;21.20;65.86;98572.22;2074002;86;20967;-72
2021/07/03 10:33:45;;;;;;;18.92;6.25;;;;;;;21.22;65.54;98584.05;2074047;86;21043;-62
2021/07/03 10:36:46;;;;;;;18.75;5.22;;;;;;;21.03;65.87;98592.75;2074041;86;21011;-62
2021/07/03 10:39:46;;;;;;;21.00;5.87;;;;;;;20.80;66.27;98580.55;2074042;86;21583;-62
2021/07/03 10:42:46;;;;;;;18.50;5.50;;;;;;;20.76;66.56;98600.55;2073928;86;21003;-67
2021/07/03 10:45:47;;;;;;;22.17;7.00;;;;;;;20.63;66.95;98586.34;2073913;86;20992;-62
2021/07/03 10:48:47;;;;;;;20.40;6.25;;;;;;;20.58;67.18;98574.00;2074116;86;21356;-62
2021/07/03 10:51:48;;;;;;;19.73;6.10;;;;;;;20.51;67.31;98580.47;2073885;86;21079;-63
2021/07/03 10:54:49;;;;;;;21.45;6.80;;;;;;;20.36;64.43;98592.27;2073764;84;20988;-65
2021/07/03 10:57:49;;;;;;;26.97;6.90;;;;;;;20.25;66.90;98601.88;2074068;86;21062;-62
2021/07/03 11:00:51;;;;;;;18.10;5.75;;;;;;;20.19;66.31;98603.86;2074011;86;21015;-64
2021/07/03 11:03:51;;;;;;;24.70;6.80;;;;;;;20.21;66.97;98593.88;2034058;88;21526;-62
2021/07/03 11:06:53;;;;;;;19.50;6.37;;;;;;;20.19;67.48;98608.67;2027670;88;20980;-67
2021/07/03 11:09:54;;;;;;;19.65;5.55;;;;;;;20.08;67.64;98595.17;2027581;88;21051;-62
2021/07/03 11:12:55;;;;;;;19.62;5.83;;;;;;;20.01;68.08;98612.78;2027891;87;21003;-61
2021/07/03 11:15:55;;;;;;;21.25;7.83;;;;;;;19.82;68.53;98616.99;2027593;88;21094;-62
2021/07/03 11:18:58;;;;;;;18.32;6.35;;;;;;;19.81;69.39;98606.00;2033344;86;21083;-63
2021/07/03 11:21:58;;;;;;;18.95;6.10;;;;;;;20.03;70.29;98592.14;2096671;85;20993;-64
2021/07/03 11:24:59;;;;;;;18.92;6.10;;;;;;;20.13;69.83;98596.49;2101435;85;21013;-62
2021/07/03 11:27:59;;;;;;;21.75;6.17;;;;;;;20.37;69.72;98588.61;2101085;85;21112;-61
2021/07/03 11:31:00;;;;;;;17.67;5.83;;;;;;;20.66;68.83;98578.49;2101267;85;21037;-69
2021/07/03 11:34:00;;;;;;;17.12;5.53;;;;;;;20.94;65.40;98577.22;2100969;85;20993;-62
2021/07/03 11:37:02;;;;;;;16.48;5.10;;;;;;;21.21;65.46;98574.41;2101121;85;21041;-62
2021/07/03 11:40:03;;;;;;;18.23;5.60;;;;;;;21.32;64.16;98574.55;2045256;85;21027;-62
2021/07/03 11:43:03;;;;;;;18.77;5.60;;;;;;;21.37;63.02;98585.55;2101317;83;21105;-62
2021/07/03 11:46:04;;;;;;;24.70;7.17;;;;;;;21.49;64.26;98588.70;2101206;85;21564;-62
2021/07/03 11:49:05;;;;;;;19.20;6.60;;;;;;;21.43;62.68;98577.72;2045079;87;21577;-62
2021/07/03 11:52:05;;;;;;;21.05;6.33;;;;;;;21.42;62.09;98594.72;2101195;84;21005;-63
2021/07/03 11:55:06;;;;;;;24.83;6.83;;;;;;;21.42;63.63;98580.53;2045095;87;21107;-62
2021/07/03 11:58:06;;;;;;;17.77;6.12;;;;;;;21.53;64.11;98583.39;2101200;85;20989;-65
2021/07/03 12:01:07;;;;;;;18.70;5.33;;;;;;;21.45;62.66;98577.03;2101169;85;21021;-69
2021/07/03 12:04:08;;;;;;;21.68;6.17;;;;;;;21.34;63.63;98578.72;2045433;87;21054;-63
2021/07/03 12:07:08;;;;;;;17.48;6.12;;;;;;;21.29;63.86;98573.04;2101286;85;21512;-63
2021/07/03 12:10:09;;;;;;;19.07;5.50;;;;;;;21.32;64.72;98577.21;2101285;85;21109;-62
2021/07/03 12:13:09;;;;;;;16.90;5.67;;;;;;;21.25;64.30;98577.07;2101179;85;21045;-62
2021/07/03 12:16:11;;;;;;;18.48;6.12;;;;;;;21.24;64.49;98560.73;2045116;87;21090;-63
2021/07/03 12:19:16;;;;;;;43.98;9.30;;;;;;;21.29;65.21;98565.89;2103952;84;21044;-68
2021/07/03 12:22:14;;;;;;;19.32;5.72;;;;;;;21.33;64.31;98560.22;2114288;84;21048;-64
2021/07/03 12:25:14;;;;;;;19.42;6.40;;;;;;;21.27;64.26;98558.55;2117246;84;21013;-64
2021/07/03 12:28:14;;;;;;;17.12;6.00;;;;;;;21.28;64.11;98562.06;2117114;84;21017;-64
2021/07/03 12:31:15;;;;;;;18.42;5.42;;;;;;;21.19;63.55;98568.39;2116741;84;21069;-62
2021/07/03 12:34:22;;;;;;;39.07;8.93;;;;;;;21.06;63.69;98562.23;2117073;84;21048;-63
2021/07/03 12:37:18;;;;;;;18.07;6.45;;;;;;;20.93;61.81;98564.06;2114223;84;21032;-63
2021/07/03 12:40:19;;;;;;;22.27;5.83;;;;;;;20.79;62.13;98565.58;2117161;84;21012;-62
2021/07/03 12:43:19;;;;;;;26.15;6.78;;;;;;;20.69;62.89;98559.06;2116822;84;21060;-62
2021/07/03 12:46:20;;;;;;;21.40;5.80;;;;;;;20.68;63.91;98561.38;2116817;84;21032;-62
2021/07/03 12:49:20;;;;;;;18.65;5.28;;;;;;;20.63;62.94;98562.36;2117053;84;21088;-62
2021/07/03 12:52:20;;;;;;;18.48;5.25;;;;;;;20.58;62.93;98564.67;2117042;84;21025;-61
2021/07/03 12:55:21;;;;;;;19.35;5.97;;;;;;;20.56;63.38;98556.03;2116517;84;21052;-62
2021/07/03 12:58:22;;;;;;;15.98;5.10;;;;;;;20.59;63.23;98561.02;2116555;84;21029;-62
2021/07/03 13:01:23;;;;;;;17.02;5.12;;;;;;;20.60;62.62;98556.86;2116483;84;21828;-62
2021/07/03 13:04:24;;;;;;;20.23;6.33;;;;;;;20.60;62.62;98556.86;2117202;84;20992;-62
2021/07/03 13:07:24;;;;;;;18.17;5.28;;;;;;;20.68;63.66;98552.06;2116828;84;21492;-62
2021/07/03 13:10:25;;;;;;;16.97;5.30;;;;;;;20.67;62.84;98553.05;2116835;84;21484;-63
2021/07/03 13:13:25;;;;;;;18.73;5.37;;;;;;;20.59;61.97;98551.19;2116955;84;21099;-63
2021/07/03 13:16:26;;;;;;;19.65;5.70;;;;;;;20.58;63.15;98538.03;2116786;84;21025;-62
2021/07/03 13:19:26;;;;;;;16.75;5.10;;;;;;;20.64;63.21;98535.21;2116787;84;21321;-62
2021/07/03 13:22:26;;;;;;;17.95;5.25;;;;;;;20.81;62.86;98533.42;2116899;84;21001;-71
2021/07/03 13:25:27;;;;;;;17.62;5.53;;;;;;;20.97;63.18;98536.59;2116930;84;21040;-73
2021/07/03 13:28:27;;;;;;;38.67;7.92;;;;;;;21.11;62.66;98531.91;2117003;84;21084;-74
2021/07/03 13:31:28;;;;;;;22.15;5.85;;;;;;;21.34;62.57;98538.70;2116820;84;20965;-62
2021/07/03 13:34:28;;;;;;;23.83;6.00;;;;;;;21.48;61.08;98533.66;2116924;84;21536;-62
2021/07/03 13:37:28;;;;;;;16.60;4.97;;;;;;;21.68;60.58;98534.98;2116901;84;21571;-62
2021/07/03 13:40:29;;;;;;;15.83;5.08;;;;;;;21.90;60.82;98527.23;2116631;84;21040;-62
2021/07/03 13:43:29;;;;;;;16.90;5.35;;;;;;;22.13;59.21;98529.44;2117085;84;20993;-65
2021/07/03 13:46:30;;;;;;;18.43;5.13;;;;;;;22.40;58.79;98534.00;2117409;84;21016;-62
2021/07/03 13:49:30;;;;;;;20.72;5.97;;;;;;;22.64;58.02;98531.67;2117265;84;21092;-63
2021/07/03 13:52:31;;;;;;;15.93;5.10;;;;;;;22.81;57.56;98523.52;2117112;84;21053;-62
2021/07/03 13:55:32;;;;;;;19.20;4.87;;;;;;;22.95;56.96;98521.91;2116708;84;21032;-62
2021/07/03 13:58:32;;;;;;;15.67;5.27;;;;;;;23.01;55.24;98535.39;2117067;84;21077;-62
2021/07/03 14:01:33;;;;;;;20.40;5.57;;;;;;;22.86;54.29;98530.50;2116843;84;21020;-62